Wied, Texas
Current Conditions -  °F | °C
As of 2:35 AM on Sunday 23 Nov 2014 (Local Time) from K66R Reporting Station
Clear Clear  
Wind Chill: 59°   Ceiling: Unl
Heat Index: 59°   Visibility: 10mi
Dew Point: 58°   Wind: 0mph
Humidity: 99%   Direction: NA
Pressure: 29.65"   Gusts: NA
Location:  29.3984°N, 96.8256°W
Report Text: K66R 230835Z AUTO 00000KT 10SM CLR 15/15 A2965 RMK AO2 T01490147
Loading
Personal Weather Stations






























Interactive Weather Map New forecast layout! Learn more

10-Day Weather Forecast

Advertisements
Track Severe Weather on mobile